createdAt,value
2018-12-18T00:02:21.622Z,25.77
2018-12-18T00:05:31.225Z,26.00
2018-12-18T00:08:39.184Z,26.67
2018-12-18T00:11:43.559Z,25.90
2018-12-18T00:14:47.946Z,24.30
2018-12-18T00:17:52.337Z,25.63
2018-12-18T00:20:56.464Z,24.03
2018-12-18T00:24:00.757Z,25.53
2018-12-18T00:27:05.045Z,22.57
2018-12-18T00:30:10.077Z,24.07
2018-12-18T00:33:14.605Z,22.10
2018-12-18T00:36:21.975Z,23.63
2018-12-18T00:39:26.319Z,24.37
2018-12-18T00:42:30.789Z,25.63
2018-12-18T00:45:35.414Z,23.83
2018-12-18T00:48:39.615Z,23.60
2018-12-18T00:51:43.850Z,27.13
2018-12-18T00:54:48.190Z,27.27
2018-12-18T00:57:52.650Z,25.07
2018-12-18T01:00:57.051Z,26.77
2018-12-18T01:04:01.627Z,26.63
2018-12-18T01:07:06.097Z,27.70
2018-12-18T01:10:10.152Z,25.90
2018-12-18T01:13:14.377Z,27.17
2018-12-18T01:16:18.516Z,24.57
2018-12-18T01:19:22.837Z,24.83
2018-12-18T01:22:26.947Z,24.47
2018-12-18T01:25:31.280Z,26.30
2018-12-18T01:28:35.846Z,27.67
2018-12-18T01:31:40.307Z,26.27
2018-12-18T01:34:44.620Z,27.33
2018-12-18T01:37:48.935Z,23.97
2018-12-18T01:40:53.288Z,24.60
2018-12-18T01:43:57.524Z,26.40
2018-12-18T01:47:01.744Z,24.73
2018-12-18T01:50:06.371Z,24.40
2018-12-18T01:53:10.570Z,24.57
2018-12-18T01:56:15.435Z,25.27
2018-12-18T01:59:19.550Z,25.03
2018-12-18T02:02:23.941Z,24.17
2018-12-18T02:05:28.325Z,26.93
2018-12-18T02:08:32.714Z,24.90
2018-12-18T02:11:37.349Z,24.87
2018-12-18T02:14:41.635Z,24.67
2018-12-18T02:17:46.076Z,24.50
2018-12-18T02:20:50.429Z,25.00
2018-12-18T02:23:54.687Z,23.80
2018-12-18T02:26:58.959Z,25.33
2018-12-18T02:30:04.513Z,22.77
2018-12-18T02:33:08.723Z,22.80
2018-12-18T02:36:13.195Z,25.37
2018-12-18T02:39:17.622Z,26.93
2018-12-18T02:42:21.951Z,24.67
2018-12-18T02:45:26.312Z,24.37
2018-12-18T02:48:30.902Z,26.30
2018-12-18T02:51:35.197Z,26.17
2018-12-18T02:54:39.532Z,24.97
2018-12-18T02:57:43.992Z,25.37
2018-12-18T03:00:48.482Z,24.00
2018-12-18T03:03:52.639Z,26.07
2018-12-18T03:06:57.057Z,25.47
2018-12-18T03:10:02.096Z,25.13
2018-12-18T03:13:06.931Z,24.47
2018-12-18T03:16:11.297Z,24.97
2018-12-18T03:19:15.720Z,27.17
2018-12-18T03:22:21.033Z,25.17
2018-12-18T03:25:25.461Z,25.33
2018-12-18T03:28:29.544Z,26.93
2018-12-18T03:31:35.151Z,27.10
2018-12-18T03:34:39.323Z,26.67
2018-12-18T03:37:43.388Z,28.10
2018-12-18T03:40:47.497Z,25.23
2018-12-18T03:43:51.701Z,25.10
2018-12-18T03:46:56.179Z,27.67
2018-12-18T03:50:00.685Z,27.20
2018-12-18T03:53:04.981Z,26.37
2018-12-18T03:56:09.512Z,25.57
2018-12-18T03:59:13.762Z,23.93
2018-12-18T04:02:18.130Z,24.53
2018-12-18T04:05:22.452Z,25.60
2018-12-18T04:08:26.929Z,26.10
2018-12-18T04:11:31.318Z,24.80
2018-12-18T04:14:35.748Z,24.07
2018-12-18T04:17:39.996Z,25.30
2018-12-18T04:20:44.535Z,23.87
2018-12-18T04:23:48.927Z,26.17
2018-12-18T04:26:53.355Z,24.00
2018-12-18T04:29:57.671Z,23.67
2018-12-18T04:33:02.012Z,25.00
2018-12-18T04:36:06.539Z,26.77
2018-12-18T04:39:10.856Z,26.10
2018-12-18T04:42:15.164Z,27.03
2018-12-18T04:45:19.577Z,23.50
2018-12-18T04:48:23.767Z,21.93
2018-12-18T04:51:28.214Z,23.07
2018-12-18T04:54:32.474Z,24.57
2018-12-18T04:57:36.826Z,22.30
2018-12-18T05:00:41.077Z,22.50
2018-12-18T05:03:45.375Z,24.33
2018-12-18T05:06:50.008Z,24.80
2018-12-18T05:09:54.150Z,21.33
2018-12-18T05:12:58.448Z,26.67
2018-12-18T05:16:02.803Z,23.33
2018-12-18T05:19:07.115Z,22.83
2018-12-18T05:22:11.495Z,24.90
2018-12-18T05:25:16.056Z,24.17
2018-12-18T05:28:20.330Z,22.57
2018-12-18T05:31:24.721Z,23.93
2018-12-18T05:34:29.037Z,24.50
2018-12-18T05:37:33.456Z,24.23
2018-12-18T05:40:37.915Z,23.80
2018-12-18T05:43:42.317Z,24.20
2018-12-18T05:46:46.545Z,24.20
2018-12-18T05:49:50.838Z,23.17
2018-12-18T05:52:55.163Z,23.40
2018-12-18T05:56:00.243Z,23.53
2018-12-18T05:59:04.950Z,24.03
2018-12-18T06:02:09.248Z,24.03
2018-12-18T06:05:13.636Z,24.40
2018-12-18T06:08:17.892Z,26.90
2018-12-18T06:11:22.177Z,24.67
2018-12-18T06:14:26.694Z,26.97
2018-12-18T06:17:31.028Z,25.43
2018-12-18T06:20:35.166Z,26.83
2018-12-18T06:23:39.428Z,27.83
2018-12-18T06:26:44.175Z,31.47
2018-12-18T06:29:48.541Z,30.13
2018-12-18T06:32:52.678Z,32.47
2018-12-18T06:35:56.916Z,31.27
2018-12-18T06:39:02.010Z,29.40
2018-12-18T06:42:06.523Z,28.90
2018-12-18T06:45:10.714Z,29.47
2018-12-18T06:48:15.235Z,29.77
2018-12-18T06:51:19.727Z,29.93
2018-12-18T06:54:23.998Z,30.67
2018-12-18T06:57:28.354Z,28.93
2018-12-18T07:00:32.693Z,28.13
2018-12-18T07:03:37.187Z,29.60
2018-12-18T07:06:42.749Z,34.07
2018-12-18T07:09:47.167Z,31.53
2018-12-18T07:12:51.680Z,28.57
2018-12-18T07:15:55.885Z,31.10
2018-12-18T07:19:00.513Z,30.13
2018-12-18T07:22:04.727Z,28.17
2018-12-18T07:25:09.060Z,32.60
2018-12-18T07:28:13.524Z,31.00
2018-12-18T07:31:17.863Z,31.73
2018-12-18T07:34:22.156Z,30.57
2018-12-18T07:37:26.364Z,28.97
2018-12-18T07:40:30.960Z,29.80
2018-12-18T07:43:35.424Z,30.10
2018-12-18T07:46:39.748Z,26.00
2018-12-18T07:49:50.556Z,31.00
2018-12-18T07:52:55.374Z,27.67
2018-12-18T07:56:00.337Z,28.50
2018-12-18T07:59:05.021Z,29.97
2018-12-18T08:02:10.484Z,34.63
2018-12-18T08:05:15.061Z,29.50
2018-12-18T08:08:19.182Z,30.80
2018-12-18T08:11:23.529Z,29.60
2018-12-18T08:14:27.895Z,29.20
2018-12-18T08:17:32.076Z,30.43
2018-12-18T08:20:36.807Z,28.90
2018-12-18T08:23:41.381Z,30.00
2018-12-18T08:26:45.856Z,31.47
2018-12-18T08:29:50.295Z,32.40
2018-12-18T08:32:55.077Z,28.87
2018-12-18T08:35:59.229Z,30.60
2018-12-18T08:39:05.401Z,29.77
2018-12-18T08:42:09.769Z,31.47
2018-12-18T08:45:14.066Z,45.30
2018-12-18T08:48:18.397Z,38.57
2018-12-18T08:51:22.698Z,54.00
2018-12-18T08:54:26.924Z,51.00
2018-12-18T08:57:31.336Z,36.80
2018-12-18T09:00:36.703Z,31.20
2018-12-18T09:03:40.892Z,34.57
2018-12-18T09:06:45.196Z,31.70
2018-12-18T09:09:49.569Z,33.17
2018-12-18T09:12:53.885Z,29.80
2018-12-18T09:15:58.625Z,31.40
2018-12-18T09:19:03.007Z,27.30
2018-12-18T09:22:07.330Z,28.27
2018-12-18T09:25:11.750Z,27.83
2018-12-18T09:28:16.147Z,27.60
2018-12-18T09:31:20.535Z,25.87
2018-12-18T09:34:25.954Z,23.47
2018-12-18T09:37:30.344Z,21.50
2018-12-18T09:40:39.982Z,19.50
2018-12-18T09:43:49.377Z,20.93
2018-12-18T09:46:53.709Z,20.90
2018-12-18T09:49:58.156Z,18.27
2018-12-18T09:53:02.635Z,18.60
2018-12-18T09:56:06.883Z,18.53
2018-12-18T09:59:11.132Z,17.97
2018-12-18T10:02:15.400Z,17.57
2018-12-18T10:05:19.718Z,19.67
2018-12-18T10:08:24.297Z,18.93
2018-12-18T10:11:28.380Z,18.93
2018-12-18T10:14:32.794Z,18.67
2018-12-18T10:17:39.469Z,17.27
2018-12-18T10:20:43.700Z,18.20
2018-12-18T10:23:48.132Z,20.90
2018-12-18T10:26:52.579Z,20.90
2018-12-18T10:29:56.899Z,22.57
2018-12-18T10:33:01.347Z,20.13
2018-12-18T10:36:05.505Z,23.10
2018-12-18T10:39:09.902Z,19.40
2018-12-18T10:42:14.230Z,20.37
2018-12-18T10:45:20.607Z,20.03
2018-12-18T10:48:25.068Z,20.23
2018-12-18T10:51:29.616Z,18.17
2018-12-18T10:54:33.829Z,19.57
2018-12-18T10:57:38.917Z,23.27
2018-12-18T11:00:48.607Z,21.63
2018-12-18T11:03:52.857Z,21.57
2018-12-18T11:06:57.197Z,23.53
2018-12-18T11:10:01.472Z,26.00
2018-12-18T11:13:10.888Z,25.10
2018-12-18T11:16:15.234Z,24.87
2018-12-18T11:19:19.565Z,28.10
2018-12-18T11:22:23.837Z,25.77
2018-12-18T11:25:28.199Z,25.47
2018-12-18T11:28:32.751Z,27.53
2018-12-18T11:31:37.129Z,28.83
2018-12-18T11:34:41.593Z,28.43
2018-12-18T11:37:45.535Z,29.30
2018-12-18T11:40:49.824Z,27.23
2018-12-18T11:43:54.118Z,37.43
2018-12-18T11:46:58.628Z,31.97
2018-12-18T11:50:02.530Z,28.00
2018-12-18T11:53:06.946Z,28.77
2018-12-18T11:56:11.292Z,29.20
2018-12-18T11:59:15.660Z,29.30
2018-12-18T12:02:20.071Z,29.50
2018-12-18T12:05:24.483Z,27.73
2018-12-18T12:08:28.334Z,25.27
2018-12-18T12:11:32.533Z,25.70
2018-12-18T12:14:36.873Z,24.73
2018-12-18T12:17:41.446Z,26.03
2018-12-18T12:20:45.875Z,26.83
2018-12-18T12:23:50.129Z,27.83
2018-12-18T12:26:58.938Z,28.07
2018-12-18T12:30:03.541Z,25.70
2018-12-18T12:33:08.536Z,29.37
2018-12-18T12:36:13.420Z,28.00
2018-12-18T12:39:17.656Z,26.10
2018-12-18T12:42:22.196Z,28.90
2018-12-18T12:45:26.469Z,29.03
2018-12-18T12:48:36.021Z,29.20
2018-12-18T12:51:40.162Z,27.73
2018-12-18T12:54:44.621Z,30.30
2018-12-18T12:57:48.884Z,32.23
2018-12-18T13:00:53.181Z,29.83
2018-12-18T13:03:58.542Z,28.27
2018-12-18T13:07:03.076Z,27.80
2018-12-18T13:10:07.517Z,31.30
2018-12-18T13:13:11.631Z,29.27
2018-12-18T13:16:16.171Z,28.53
2018-12-18T13:19:20.575Z,28.00
2018-12-18T13:22:24.972Z,27.90
2018-12-18T13:25:29.436Z,27.63
2018-12-18T13:28:33.506Z,25.37
2018-12-18T13:31:37.874Z,28.20
2018-12-18T13:34:42.288Z,28.03
2018-12-18T13:37:46.599Z,28.13
2018-12-18T13:40:50.678Z,27.67
2018-12-18T13:43:55.005Z,24.23
2018-12-18T13:46:59.692Z,24.67
2018-12-18T13:50:04.300Z,24.90
2018-12-18T13:53:08.510Z,23.87
2018-12-18T13:56:12.759Z,25.97
2018-12-18T13:59:17.041Z,23.90
2018-12-18T14:02:21.723Z,26.10
2018-12-18T14:05:26.146Z,25.47
2018-12-18T14:08:30.517Z,25.37
2018-12-18T14:11:34.441Z,26.27
2018-12-18T14:14:38.917Z,24.80
2018-12-18T14:17:43.261Z,25.83
2018-12-18T14:20:47.832Z,27.13
2018-12-18T14:23:52.092Z,25.30
2018-12-18T14:26:56.435Z,29.13
2018-12-18T14:30:00.873Z,25.30
2018-12-18T14:33:05.188Z,25.97
2018-12-18T14:36:09.768Z,24.60
2018-12-18T14:39:14.202Z,24.80
2018-12-18T14:42:18.210Z,27.13
2018-12-18T14:45:22.609Z,27.40
2018-12-18T14:48:26.936Z,24.67
2018-12-18T14:51:30.903Z,26.03
2018-12-18T14:54:35.237Z,25.53
2018-12-18T14:57:39.502Z,25.30
2018-12-18T15:00:43.443Z,24.50
2018-12-18T15:03:47.513Z,24.53
2018-12-18T15:06:51.956Z,25.53
2018-12-18T15:09:55.891Z,26.67
2018-12-18T15:12:59.822Z,27.10
2018-12-18T15:16:04.131Z,26.80
2018-12-18T15:19:09.075Z,26.53
2018-12-18T15:22:13.038Z,26.00
2018-12-18T15:25:16.934Z,25.97
2018-12-18T15:28:20.913Z,27.27
2018-12-18T15:31:24.812Z,29.80
2018-12-18T15:34:29.061Z,28.17
2018-12-18T15:37:33.391Z,28.67
2018-12-18T15:40:37.996Z,26.87
2018-12-18T15:43:42.251Z,28.47
2018-12-18T15:46:46.547Z,29.40
2018-12-18T15:49:50.970Z,29.00
2018-12-18T15:52:55.316Z,29.73
2018-12-18T15:55:59.664Z,26.83
2018-12-18T15:59:04.149Z,23.70
2018-12-18T16:02:08.637Z,22.90
2018-12-18T16:05:13.155Z,20.53
2018-12-18T16:08:17.393Z,21.80
2018-12-18T16:11:21.658Z,20.47
2018-12-18T16:14:25.631Z,18.23
2018-12-18T16:17:29.612Z,16.87
2018-12-18T16:20:33.654Z,15.40
2018-12-18T16:23:38.137Z,18.13
2018-12-18T16:26:42.262Z,17.40
2018-12-18T16:29:47.103Z,16.03
2018-12-18T16:32:52.584Z,15.20
2018-12-18T16:35:56.755Z,15.90
2018-12-18T16:39:00.795Z,17.17
2018-12-18T16:42:11.279Z,17.47
2018-12-18T16:45:15.329Z,18.57
2018-12-18T16:48:19.277Z,14.63
2018-12-18T16:51:23.356Z,15.13
2018-12-18T16:54:27.618Z,14.90
2018-12-18T16:57:31.622Z,15.67
2018-12-18T17:00:35.669Z,16.17
2018-12-18T17:03:39.829Z,16.30
2018-12-18T17:06:43.858Z,14.03
2018-12-18T17:09:47.818Z,16.00
2018-12-18T17:12:56.086Z,16.37
2018-12-18T17:16:00.188Z,17.03
2018-12-18T17:19:04.551Z,18.17
2018-12-18T17:22:08.881Z,17.00
2018-12-18T17:25:13.235Z,19.27
2018-12-18T17:28:17.501Z,21.97
2018-12-18T17:31:21.778Z,23.27
2018-12-18T17:34:25.638Z,23.00
2018-12-18T17:37:36.041Z,27.50
2018-12-18T17:40:35.865Z,24.00
2018-12-18T17:43:40.371Z,23.37
2018-12-18T17:46:44.836Z,20.50
2018-12-18T17:49:48.839Z,18.40
2018-12-18T17:52:53.817Z,18.57
2018-12-18T17:55:57.823Z,18.80
2018-12-18T17:59:01.804Z,19.83
2018-12-18T18:02:06.090Z,18.90
2018-12-18T18:05:10.780Z,18.17
2018-12-18T18:08:14.954Z,20.13
2018-12-18T18:11:19.202Z,19.17
2018-12-18T18:14:23.193Z,20.10
2018-12-18T18:17:33.731Z,20.33
2018-12-18T18:20:37.959Z,20.77
2018-12-18T18:23:42.577Z,19.90
2018-12-18T18:26:46.571Z,19.00
2018-12-18T18:29:50.850Z,17.97
2018-12-18T18:32:55.259Z,19.80
2018-12-18T18:35:59.808Z,22.37
2018-12-18T18:39:05.725Z,20.80
2018-12-18T18:42:10.077Z,19.40
2018-12-18T18:45:14.176Z,18.97
2018-12-18T18:48:18.545Z,18.97
2018-12-18T18:51:22.709Z,20.27
2018-12-18T18:54:27.058Z,17.43
2018-12-18T18:57:31.485Z,20.13
2018-12-18T19:00:35.908Z,22.03
2018-12-18T19:03:40.228Z,19.20
2018-12-18T19:06:44.544Z,17.67
2018-12-18T19:09:48.941Z,18.70
2018-12-18T19:12:57.585Z,18.77
2018-12-18T19:16:02.100Z,19.97
2018-12-18T19:19:06.569Z,18.50
2018-12-18T19:22:10.815Z,18.50
2018-12-18T19:25:14.818Z,17.50
2018-12-18T19:28:19.045Z,17.67
2018-12-18T19:31:23.448Z,19.20
2018-12-18T19:34:27.706Z,19.30
2018-12-18T19:37:32.019Z,18.47
2018-12-18T19:40:36.016Z,20.50
2018-12-18T19:43:40.049Z,18.10
2018-12-18T19:46:44.580Z,20.27
2018-12-18T19:49:48.679Z,21.20
2018-12-18T19:52:52.664Z,19.87
2018-12-18T19:55:56.673Z,18.33
2018-12-18T19:59:01.200Z,19.53
2018-12-18T20:02:05.206Z,22.17
2018-12-18T20:05:09.327Z,20.23
2018-12-18T20:08:13.403Z,21.53
2018-12-18T20:11:17.516Z,20.77
2018-12-18T20:14:21.654Z,21.83
2018-12-18T20:17:25.628Z,21.83
2018-12-18T20:20:29.737Z,22.63
2018-12-18T20:23:33.893Z,20.57
2018-12-18T20:26:39.049Z,20.27
2018-12-18T20:29:43.484Z,18.43
2018-12-18T20:32:47.440Z,24.20
2018-12-18T20:35:51.510Z,25.33
2018-12-18T20:38:55.990Z,25.63
2018-12-18T20:42:00.594Z,27.60
2018-12-18T20:45:05.375Z,26.97
2018-12-18T20:48:09.548Z,31.37
2018-12-18T20:51:13.533Z,31.00
2018-12-18T20:54:17.707Z,30.80
2018-12-18T20:57:21.742Z,29.10
2018-12-18T21:00:26.085Z,28.93
2018-12-18T21:03:30.145Z,30.10
2018-12-18T21:06:34.173Z,29.60
2018-12-18T21:09:38.275Z,28.67
2018-12-18T21:12:42.359Z,29.50
2018-12-18T21:15:46.480Z,29.40
2018-12-18T21:18:50.727Z,28.33
2018-12-18T21:21:55.256Z,27.57
2018-12-18T21:24:59.221Z,29.70
2018-12-18T21:28:03.282Z,28.37
2018-12-18T21:31:07.195Z,28.30
2018-12-18T21:34:11.293Z,27.43
2018-12-18T21:37:15.667Z,30.03
2018-12-18T21:40:19.910Z,28.40
2018-12-18T21:43:25.200Z,27.80
2018-12-18T21:46:29.162Z,29.90
2018-12-18T21:49:33.768Z,27.43
2018-12-18T21:52:38.014Z,27.50
2018-12-18T21:55:42.600Z,31.37
2018-12-18T21:58:47.247Z,31.20
2018-12-18T22:01:51.349Z,28.13
2018-12-18T22:04:55.571Z,33.33
2018-12-18T22:07:59.908Z,30.43
2018-12-18T22:11:04.272Z,31.17
2018-12-18T22:14:08.677Z,28.00
2018-12-18T22:17:13.005Z,27.87
2018-12-18T22:20:17.529Z,30.23
2018-12-18T22:23:21.903Z,30.83
2018-12-18T22:26:26.518Z,31.63
2018-12-18T22:29:30.799Z,30.30
2018-12-18T22:32:35.216Z,28.70
2018-12-18T22:35:39.747Z,27.27
2018-12-18T22:38:44.158Z,26.73
2018-12-18T22:41:48.965Z,30.27
2018-12-18T22:44:53.103Z,30.77
2018-12-18T22:47:57.339Z,30.00
2018-12-18T22:51:02.054Z,28.83
2018-12-18T22:54:06.758Z,29.30
2018-12-18T22:57:11.098Z,28.17
2018-12-18T23:00:20.908Z,28.10
2018-12-18T23:03:25.268Z,28.93
2018-12-18T23:06:29.599Z,29.67
2018-12-18T23:09:33.819Z,27.57
2018-12-18T23:12:38.162Z,29.40
2018-12-18T23:15:42.421Z,27.73
2018-12-18T23:18:46.625Z,29.83
2018-12-18T23:21:50.840Z,28.77
2018-12-18T23:24:55.263Z,28.07
2018-12-18T23:27:59.763Z,29.70
2018-12-18T23:31:03.849Z,29.03
2018-12-18T23:34:08.118Z,29.40
2018-12-18T23:37:18.783Z,28.60
2018-12-18T23:40:23.102Z,28.67
2018-12-18T23:43:27.677Z,27.60
2018-12-18T23:46:31.911Z,30.83
2018-12-18T23:49:36.412Z,32.20
2018-12-18T23:52:40.868Z,32.33
2018-12-18T23:55:45.429Z,32.20
2018-12-18T23:58:50.142Z,33.50
